Darstellungsparameter: Aktuell verwendete Einstellungen:
Skalierung der Graphiken ... ?
xyx+y,   Skalierungsfaktor:      Skalierung: Modus: x, Faktor: 1
Darstellungszeitraum ... ?
Vom - - bis: - -   Zeitraum: 27.11.2010 - 27.11.2010
Min/Max/Avg-Anzeige ... ?
Zeige MMA aktuell
Zeige MMA Monat
Zeige MMA alles
Zeige --A aktuell
Zeige --A Monat
Zeige --A alles
Keine MMA-Anzeige
MMA:
Minimum Maximum Average (ber die Originaldaten)
MMA-Basis: 23.02.2003 - 28.11.2020
Quicknavigation für Darstellung... ?
Tage:      1T, 2T, 3T, 5T -1T -2T -3T -5T +1T +2T +3T +5T
Wochen: 1W, 2W, 3W -1W -2W -3W +1W +2W +3W
Monate: 1M, 3M, 6M -1M -3M -6M +1M +3M +6M
Jahre:    1J, 3J, 5J, 10J -1J -3J -5J -10J +1J +3J +5J +10J
Nutze für die Darstellung ... ?
Originaldaten oder Mittelwerte auf ...
Stundenbasis Tagesbasis Wochenbasis
Monatsbasis Jahresbasis      Datenbasis: Original-Daten
Darstellen als:
Statistik (Auto) Statistik J:M      Darstellung:
Zur Graphik,    zurück zur Übersicht aller Sensoren.
 
Tabellarische Datenbersicht: ?
 
Sensor: Nr:Datum:Temp:Abs-Feuchte:Windchill:Wind:
Aussen-T/F 1 27-11-2010 00:03:02 -4 C 3.29 g/m*3 -4 C 0 km/h
2 27-11-2010 00:15:02 -4.1 C 3.27 g/m*3 -4.1 C 0 km/h
3 27-11-2010 00:27:02 -4.2 C 3.25 g/m*3 -4.2 C 0 km/h
4 27-11-2010 00:39:02 -4.1 C 3.27 g/m*3 -4.1 C 0 km/h
5 27-11-2010 00:51:02 -4 C 3.29 g/m*3 -4 C 0 km/h
6 27-11-2010 01:03:02 -3.1 C 3.51 g/m*3 -3.1 C 0 km/h
7 27-11-2010 01:15:02 -2.7 C 3.61 g/m*3 -2.7 C 0 km/h
8 27-11-2010 01:27:02 -3.7 C 3.36 g/m*3 -3.7 C 0 km/h
9 27-11-2010 01:39:02 -4.3 C 3.19 g/m*3 -4.3 C 0 km/h
10 27-11-2010 01:51:03 -3.9 C 3.28 g/m*3 -3.9 C 0 km/h
11 27-11-2010 02:03:03 -3.9 C 3.28 g/m*3 -3.9 C 0 km/h
12 27-11-2010 02:15:03 -4.1 C 3.2 g/m*3 -4.1 C 0 km/h
13 27-11-2010 02:27:03 -4.5 C 3.11 g/m*3 -4.5 C 0 km/h
14 27-11-2010 02:39:03 -4 C 3.22 g/m*3 -4 C 0 km/h
15 27-11-2010 02:51:03 -3.2 C 3.45 g/m*3 -3.2 C 0 km/h
16 27-11-2010 03:03:03 -2.8 C 3.55 g/m*3 -2.8 C 0 km/h
17 27-11-2010 03:15:03 -2.7 C 3.61 g/m*3 -2.7 C 0 km/h
18 27-11-2010 03:27:03 -2.9 C 3.52 g/m*3 -2.9 C 0 km/h
19 27-11-2010 03:39:03 -3.5 C 3.37 g/m*3 -3.5 C 0 km/h
20 27-11-2010 03:51:03 -3.9 C 3.24 g/m*3 -3.9 C 0 km/h
21 27-11-2010 04:03:03 -4.1 C 3.2 g/m*3 -4.1 C 0 km/h
22 27-11-2010 04:15:03 -4 C 3.22 g/m*3 -4 C 0 km/h
23 27-11-2010 04:27:03 -4.1 C 3.2 g/m*3 -4.1 C 0 km/h
24 27-11-2010 04:39:03 -4 C 3.22 g/m*3 -4 C 0 km/h
25 27-11-2010 04:51:03 -4.4 C 3.13 g/m*3 -4.4 C 0 km/h
Sensor: Nr:Datum:Temp:Abs-Feuchte:Windchill:Wind:
Aussen-T/F 26 27-11-2010 05:03:03 -4.5 C 3.11 g/m*3 -4.5 C 0 km/h
27 27-11-2010 05:15:03 -4.7 C 3.03 g/m*3 -4.7 C 0 km/h
28 27-11-2010 05:27:03 -4.4 C 3.13 g/m*3 -4.4 C 0 km/h
29 27-11-2010 05:39:03 -4 C 3.22 g/m*3 -4 C 0 km/h
30 27-11-2010 05:51:03 -3.8 C 3.27 g/m*3 -3.8 C 0 km/h
31 27-11-2010 06:03:04 -3.7 C 3.29 g/m*3 -3.7 C 0 km/h
32 27-11-2010 06:15:04 -3.4 C 3.4 g/m*3 -3.4 C 0 km/h
33 27-11-2010 06:27:04 -3.4 C 3.4 g/m*3 -3.4 C 0 km/h
34 27-11-2010 06:39:04 -3.5 C 3.34 g/m*3 -3.5 C 0 km/h
35 27-11-2010 06:51:04 -3.6 C 3.31 g/m*3 -3.6 C 0 km/h
36 27-11-2010 07:03:04 -3.8 C 3.27 g/m*3 -3.8 C 0 km/h
37 27-11-2010 07:15:04 -3.4 C 3.36 g/m*3 -3.4 C 0 km/h
38 27-11-2010 07:27:04 -3.5 C 3.34 g/m*3 -3.5 C 0 km/h
39 27-11-2010 07:39:04 -3.6 C 3.31 g/m*3 -3.6 C 0 km/h
40 27-11-2010 07:51:04 -3.4 C 3.36 g/m*3 -3.4 C 0 km/h
41 27-11-2010 08:03:04 -3.5 C 3.34 g/m*3 -3.5 C 0 km/h
42 27-11-2010 08:15:04 -3.4 C 3.36 g/m*3 -3.4 C 0 km/h
43 27-11-2010 08:27:04 -2.9 C 3.52 g/m*3 -2.9 C 0 km/h
44 27-11-2010 08:39:04 -2.6 C 3.6 g/m*3 -2.6 C 0 km/h
45 27-11-2010 08:51:04 -2.6 C 3.6 g/m*3 -2.6 C 0 km/h
46 27-11-2010 09:03:04 -2.3 C 3.67 g/m*3 -2.3 C 0 km/h
47 27-11-2010 09:15:04 -2 C 3.75 g/m*3 -2 C 0 km/h
48 27-11-2010 09:27:04 -1.9 C 3.78 g/m*3 -1.9 C 0 km/h
49 27-11-2010 09:39:04 -1.7 C 3.83 g/m*3 -1.7 C 0 km/h
50 27-11-2010 09:51:04 -1.1 C 4 g/m*3 -1.1 C 0 km/h
Sensor: Nr:Datum:Temp:Abs-Feuchte:Windchill:Wind:
Aussen-T/F 51 27-11-2010 10:03:02 -0.8 C 4.13 g/m*3 -0.8 C 0 km/h
52 27-11-2010 10:15:02 -0.8 C 4.08 g/m*3 -0.8 C 0 km/h
53 27-11-2010 10:27:02 -1 C 4.02 g/m*3 -1 C 0 km/h
54 27-11-2010 10:39:01 -1 C 3.98 g/m*3 -1 C 0 km/h
55 27-11-2010 10:51:02 -0.6 C 4.09 g/m*3 -0.6 C 0 km/h
56 27-11-2010 11:03:01 -0.4 C 4.15 g/m*3 -0.4 C 0 km/h
57 27-11-2010 11:15:02 -0.4 C 4.15 g/m*3 -0.4 C 0 km/h
58 27-11-2010 11:27:02 -0.3 C 4.18 g/m*3 -0.3 C 0 km/h
59 27-11-2010 11:39:01 0 C 4.26 g/m*3 0 C 0 km/h
60 27-11-2010 11:51:02 0.1 C 4.2 g/m*3 0.1 C 0 km/h
61 27-11-2010 12:03:02 0.2 C 4.13 g/m*3 0.2 C 0 km/h
62 27-11-2010 12:15:02 0.3 C 4.06 g/m*3 0.3 C 0 km/h
63 27-11-2010 12:27:02 0.4 C 4.03 g/m*3 0.4 C 0 km/h
64 27-11-2010 12:39:03 0.6 C 3.99 g/m*3 0.6 C 0 km/h
65 27-11-2010 12:51:02 0.4 C 3.79 g/m*3 0.4 C 0 km/h
66 27-11-2010 13:03:02 0.7 C 3.86 g/m*3 0.7 C 0 km/h
67 27-11-2010 13:15:02 0.7 C 3.86 g/m*3 0.7 C 0 km/h
68 27-11-2010 13:27:02 0.7 C 3.92 g/m*3 0.7 C 0 km/h
69 27-11-2010 13:39:02 1 C 4 g/m*3 1 C 0 km/h
70 27-11-2010 13:51:02 1.2 C 3.89 g/m*3 1.2 C 0 km/h
71 27-11-2010 14:03:02 1.4 C 3.95 g/m*3 1.4 C 0 km/h
72 27-11-2010 14:15:02 1.5 C 3.87 g/m*3 1.5 C 0 km/h
73 27-11-2010 14:27:02 1.5 C 3.71 g/m*3 1.5 C 0 km/h
74 27-11-2010 14:39:02 1.7 C 3.7 g/m*3 1.7 C 0 km/h
75 27-11-2010 14:51:01 1.3 C 3.71 g/m*3 1.3 C 0 km/h
Sensor: Nr:Datum:Temp:Abs-Feuchte:Windchill:Wind:
Aussen-T/F 76 27-11-2010 15:03:02 1 C 3.74 g/m*3 1 C 0 km/h
77 27-11-2010 15:15:01 1 C 3.84 g/m*3 1 C 0 km/h
78 27-11-2010 15:27:01 0.8 C 3.79 g/m*3 0.8 C 0 km/h
79 27-11-2010 15:39:01 0.7 C 3.81 g/m*3 0.7 C 0 km/h
80 27-11-2010 15:51:01 0.3 C 3.81 g/m*3 0.3 C 0 km/h
81 27-11-2010 16:03:01 -0.3 C 3.56 g/m*3 -0.3 C 0 km/h
82 27-11-2010 16:15:02 -0.5 C 3.6 g/m*3 -0.5 C 0 km/h
83 27-11-2010 16:27:02 -0.7 C 3.6 g/m*3 -0.7 C 0 km/h
84 27-11-2010 16:39:01 -1 C 3.57 g/m*3 -1 C 0 km/h
85 27-11-2010 16:51:02 -1.1 C 3.59 g/m*3 -1.1 C 0 km/h
86 27-11-2010 17:03:01 -1 C 3.66 g/m*3 -1 C 0 km/h
87 27-11-2010 17:15:02 -0.7 C 3.69 g/m*3 -0.7 C 0 km/h
88 27-11-2010 17:27:02 -0.7 C 3.65 g/m*3 -0.7 C 0 km/h
89 27-11-2010 17:39:01 -0.8 C 3.67 g/m*3 -0.8 C 0 km/h
90 27-11-2010 17:51:02 -1.1 C 3.59 g/m*3 -1.1 C 0 km/h
91 27-11-2010 18:03:02 -1.6 C 3.51 g/m*3 -1.6 C 0 km/h
92 27-11-2010 18:15:02 -1.8 C 3.51 g/m*3 -1.8 C 0 km/h
93 27-11-2010 18:27:02 -1.8 C 3.55 g/m*3 -1.8 C 0 km/h
94 27-11-2010 18:39:02 -1.7 C 3.62 g/m*3 -1.7 C 0 km/h
95 27-11-2010 18:51:02 -1 C 3.8 g/m*3 -1 C 0 km/h
96 27-11-2010 19:03:01 -0.9 C 3.78 g/m*3 -0.9 C 0 km/h
97 27-11-2010 19:15:02 -1 C 3.71 g/m*3 -1 C 0 km/h
98 27-11-2010 19:27:02 -1.1 C 3.73 g/m*3 -1.1 C 0 km/h
99 27-11-2010 19:39:02 -0.9 C 3.78 g/m*3 -0.9 C 0 km/h
100 27-11-2010 19:51:02 -0.7 C 3.78 g/m*3 -0.7 C 0 km/h
Sensor: Nr:Datum:Temp:Abs-Feuchte:Windchill:Wind:
Aussen-T/F 101 27-11-2010 20:03:03 -0.7 C 3.78 g/m*3 -0.7 C 0 km/h
102 27-11-2010 20:15:02 -0.7 C 3.74 g/m*3 -0.7 C 0 km/h
103 27-11-2010 20:27:02 -1.2 C 3.52 g/m*3 -1.2 C 0 km/h
104 27-11-2010 20:39:02 -2.2 C 3.33 g/m*3 -2.2 C 0 km/h
105 27-11-2010 20:51:01 -2.7 C 3.25 g/m*3 -2.7 C 0 km/h
106 27-11-2010 21:03:02 -3 C 3.22 g/m*3 -3 C 0 km/h
107 27-11-2010 21:15:01 -3 C 3.3 g/m*3 -3 C 0 km/h
108 27-11-2010 21:27:01 -3 C 3.3 g/m*3 -3 C 0 km/h
109 27-11-2010 21:39:01 -3.2 C 3.25 g/m*3 -3.2 C 0 km/h
110 27-11-2010 21:51:01 -3.3 C 3.27 g/m*3 -3.3 C 0 km/h
111 27-11-2010 22:03:02 -3.8 C 3.15 g/m*3 -3.8 C 0 km/h
112 27-11-2010 22:15:01 -3.8 C 3.19 g/m*3 -3.8 C 0 km/h
113 27-11-2010 22:27:01 -3.2 C 3.37 g/m*3 -3.2 C 0 km/h
114 27-11-2010 22:40:03 -3.3 C 3.31 g/m*3 -3.3 C 0 km/h
115 27-11-2010 22:52:03 -2.7 C 3.49 g/m*3 -2.7 C 0 km/h
116 27-11-2010 23:04:03 -2.8 C 3.43 g/m*3 -2.8 C 0 km/h
117 27-11-2010 23:16:03 -2.8 C 3.43 g/m*3 -2.8 C 0 km/h
118 27-11-2010 23:28:03 -3 C 3.38 g/m*3 -3 C 0 km/h
119 27-11-2010 23:40:03 -3.6 C 3.2 g/m*3 -3.6 C 0 km/h
120 27-11-2010 23:52:03 -3.9 C 3.13 g/m*3 -3.9 C 0 km/h

Legende:
   Min
   Max


Maximal/Minimal-Werte vom 23.02.2003 - 28.11.2020

Sensor Min Max Avg
Temp
(Aussen-T/F)
-16.4 °C
20-12-2009  01:30:01
40.4 °C
25-07-2019  16:20:00
11.3 °C

Die Daten stammen von einer Davis Vantage Pro 2 Wetter-Station und werden unter Linux mit der Software wview2wettercgi und aufbereitet. Alle Angaben erfolgen ohne Gewähr für ihre Vollständigkeit oder Richtigkeit.
Kontakt: Rainer Krienke krienke@uni-koblenz.de . Meine Webseiten an der Uni Koblenz oder privat.
Version: $Revision: 0.78 $